High gust

Not for real navigation. The accuracy of this data is not assured See disclaimer for more information



ICAO NAME COUNTRY WIND Kt GUST Kt VIS m TEMP/DEW C BARO METAR
LFMU Beziers / Vias France 30 44 4200 19/17 29.68 LFMU 150830Z AUTO 11030G44KT 4200 BR BKN014/// OVC022/// ///CB 19/17 Q1005 TEMPO 1200 TSRA BR
LFMT Montpellier France 30 43 8000 19/14 29.80 LFMT 150830Z AUTO 11030G43KT 8000 -RA SCT036/// BKN042/// BKN058/// ///TCU 19/14 Q1009 TEMPO 1200 TS
FAPE Port Elizabeth, Port E Apt South Africa 26 38 9999 20/13 30.03 FAPE 150834Z 24026G38KT 9999 FEW030 20/13 Q1017 NOSIG
YPTN Tindal / Katherine Australia 23 37 6000 28/19 29.80 YPTN 150843Z 28023G37KT 6000 TSRA FEW040CB BKN050 28/19 Q1009 FM0843 29012KT 9999 SCT030 SCT080 INTE
YBHI 27 37 8000 29/10 29.68 YBHI 150800Z AUTO 03027G37KT 8000 // NCD 29/10 Q1005

Show more